SJV677 WALL-WAHI
Flight info
| Callsign | SJV677 |
|---|---|
| Flight time | 1h 30m |
| Altitude | 34000 |
| Route | AJAMA T14 LAVOV T26 ANY W17N SO |
| Aircraft | A320/M-SDE3FGHIRWY/LB1 |
Departure
| Time | 2026-04-30 10:05 |
|---|---|
| Airport | Sultan Aji Muhammad Sulaiman Sepinggan International Airport (WALL) |
Arrival
| Time | 2026-04-30 11:36 |
|---|---|
| Airport | Yogyakarta International Airport (WAHI) |
| Time | Latitude | Longitude | Altitude | Speed | Heading |
|---|---|---|---|---|---|
| 2026-04-30 09:36 | -1.26342 | 116.89775 | 0 ft | 0 kts | 337° |
| 2026-04-30 09:54 | -1.26357 | 116.89781 | 21 ft | 4 kts | 337° |
| 2026-04-30 09:55 | -1.26382 | 116.89791 | 21 ft | 4 kts | 332° |
| 2026-04-30 09:55 | -1.26402 | 116.89808 | 21 ft | 4 kts | 291° |
| 2026-04-30 09:55 | -1.26404 | 116.89829 | 22 ft | 1 kts | 247° |
| 2026-04-30 09:55 | -1.26402 | 116.89833 | 23 ft | 0 kts | 247° |
| 2026-04-30 09:58 | -1.26402 | 116.89832 | 23 ft | 1 kts | 247° |
| 2026-04-30 09:58 | -1.26407 | 116.89820 | 21 ft | 3 kts | 247° |
| 2026-04-30 09:58 | -1.26416 | 116.89798 | 22 ft | 4 kts | 247° |
| 2026-04-30 09:59 | -1.26484 | 116.89775 | 21 ft | 7 kts | 168° |
| 2026-04-30 09:59 | -1.26552 | 116.89690 | 22 ft | 10 kts | 247° |
| 2026-04-30 10:00 | -1.26616 | 116.89536 | 21 ft | 14 kts | 247° |
| 2026-04-30 10:00 | -1.26655 | 116.89443 | 21 ft | 15 kts | 247° |
| 2026-04-30 10:01 | -1.26748 | 116.89223 | 21 ft | 19 kts | 246° |
| 2026-04-30 10:01 | -1.26803 | 116.89095 | 21 ft | 21 kts | 247° |
| 2026-04-30 10:01 | -1.26862 | 116.88955 | 21 ft | 23 kts | 246° |
| 2026-04-30 10:02 | -1.26992 | 116.88646 | 21 ft | 19 kts | 247° |
| 2026-04-30 10:02 | -1.27039 | 116.88534 | 22 ft | 18 kts | 247° |
| 2026-04-30 10:02 | -1.27082 | 116.88435 | 21 ft | 15 kts | 244° |
| 2026-04-30 10:02 | -1.27160 | 116.88364 | 21 ft | 17 kts | 191° |
| 2026-04-30 10:03 | -1.27231 | 116.88396 | 21 ft | 3 kts | 141° |
| 2026-04-30 10:03 | -1.27252 | 116.88413 | 20 ft | 3 kts | 141° |
| 2026-04-30 10:03 | -1.27263 | 116.88434 | 20 ft | 4 kts | 97° |
| 2026-04-30 10:03 | -1.27259 | 116.88448 | 20 ft | 0 kts | 70° |
| 2026-04-30 10:04 | -1.27232 | 116.88517 | 22 ft | 40 kts | 68° |
| 2026-04-30 10:04 | -1.27031 | 116.88989 | 20 ft | 104 kts | 67° |
| 2026-04-30 10:04 | -1.26686 | 116.89807 | 23 ft | 150 kts | 67° |
| 2026-04-30 10:05 | -1.26391 | 116.90491 | 76 ft | 171 kts | 66° |
| 2026-04-30 10:05 | -1.25915 | 116.91587 | 638 ft | 172 kts | 67° |
| 2026-04-30 10:05 | -1.25455 | 116.92698 | 1257 ft | 174 kts | 67° |
| 2026-04-30 10:05 | -1.24987 | 116.93816 | 1839 ft | 178 kts | 67° |
| 2026-04-30 10:06 | -1.24286 | 116.95435 | 2147 ft | 203 kts | 67° |
| 2026-04-30 10:06 | -1.23896 | 116.96331 | 2256 ft | 221 kts | 69° |
| 2026-04-30 10:06 | -1.23688 | 116.97861 | 2827 ft | 226 kts | 104° |
| 2026-04-30 10:06 | -1.24509 | 116.99187 | 3513 ft | 233 kts | 142° |
| 2026-04-30 10:07 | -1.25995 | 116.99873 | 4211 ft | 239 kts | 162° |
| 2026-04-30 10:07 | -1.27600 | 117.00357 | 4951 ft | 243 kts | 160° |
| 2026-04-30 10:07 | -1.29214 | 117.00907 | 5676 ft | 246 kts | 159° |
| 2026-04-30 10:07 | -1.30836 | 117.01513 | 6420 ft | 250 kts | 157° |
| 2026-04-30 10:08 | -1.32462 | 117.02149 | 7172 ft | 252 kts | 156° |
| 2026-04-30 10:08 | -1.34101 | 117.02803 | 7921 ft | 255 kts | 160° |
| 2026-04-30 10:08 | -1.35862 | 117.03037 | 8625 ft | 260 kts | 186° |
| 2026-04-30 10:08 | -1.37582 | 117.02454 | 9332 ft | 265 kts | 213° |
| 2026-04-30 10:09 | -1.38881 | 117.01126 | 9851 ft | 278 kts | 241° |
| 2026-04-30 10:09 | -1.39520 | 116.99265 | 10113 ft | 297 kts | 257° |
| 2026-04-30 10:09 | -1.40022 | 116.97191 | 10377 ft | 318 kts | 257° |
| 2026-04-30 10:09 | -1.40563 | 116.94969 | 10519 ft | 341 kts | 256° |
| 2026-04-30 10:10 | -1.41148 | 116.92594 | 10641 ft | 362 kts | 256° |
| 2026-04-30 10:10 | -1.41770 | 116.90099 | 10873 ft | 377 kts | 256° |
| 2026-04-30 10:10 | -1.42416 | 116.87535 | 11359 ft | 383 kts | 256° |
| 2026-04-30 10:10 | -1.43072 | 116.84936 | 11941 ft | 387 kts | 256° |
| 2026-04-30 10:11 | -1.43783 | 116.82327 | 12532 ft | 390 kts | 253° |
| 2026-04-30 10:11 | -1.44569 | 116.79715 | 13067 ft | 394 kts | 252° |
| 2026-04-30 10:11 | -1.45397 | 116.77093 | 13609 ft | 397 kts | 252° |
| 2026-04-30 10:11 | -1.46244 | 116.74461 | 14117 ft | 401 kts | 252° |
| 2026-04-30 10:12 | -1.47101 | 116.71795 | 14646 ft | 404 kts | 252° |
| 2026-04-30 10:12 | -1.47953 | 116.69102 | 15162 ft | 407 kts | 252° |
| 2026-04-30 10:12 | -1.48797 | 116.66386 | 15660 ft | 411 kts | 252° |
| 2026-04-30 10:12 | -1.49635 | 116.63651 | 16163 ft | 413 kts | 252° |
| 2026-04-30 10:13 | -1.50478 | 116.60889 | 16644 ft | 417 kts | 252° |
| 2026-04-30 10:13 | -1.51328 | 116.58110 | 17119 ft | 420 kts | 252° |
| 2026-04-30 10:13 | -1.52187 | 116.55307 | 17607 ft | 423 kts | 252° |
| 2026-04-30 10:13 | -1.53051 | 116.52491 | 18077 ft | 426 kts | 252° |
| 2026-04-30 10:14 | -1.53921 | 116.49651 | 18542 ft | 429 kts | 252° |
| 2026-04-30 10:14 | -1.54798 | 116.46795 | 18998 ft | 432 kts | 252° |
| 2026-04-30 10:14 | -1.56561 | 116.41060 | 19853 ft | 438 kts | 252° |
| 2026-04-30 10:15 | -1.57460 | 116.38139 | 20262 ft | 441 kts | 252° |
| 2026-04-30 10:15 | -1.58365 | 116.35199 | 20673 ft | 444 kts | 252° |
| 2026-04-30 10:15 | -1.59276 | 116.32245 | 21059 ft | 447 kts | 252° |
| 2026-04-30 10:15 | -1.60196 | 116.29266 | 21452 ft | 450 kts | 252° |
| 2026-04-30 10:16 | -1.61121 | 116.26266 | 21823 ft | 452 kts | 252° |
| 2026-04-30 10:16 | -1.62049 | 116.23254 | 22185 ft | 455 kts | 252° |
| 2026-04-30 10:16 | -1.62980 | 116.20222 | 22531 ft | 457 kts | 252° |
| 2026-04-30 10:17 | -1.64859 | 116.14108 | 23183 ft | 463 kts | 252° |
| 2026-04-30 10:17 | -1.66764 | 116.07923 | 23822 ft | 467 kts | 252° |
| 2026-04-30 10:17 | -1.67721 | 116.04814 | 24119 ft | 470 kts | 252° |
| 2026-04-30 10:18 | -1.68682 | 116.01682 | 24372 ft | 473 kts | 253° |
| 2026-04-30 10:18 | -1.69647 | 115.98524 | 24654 ft | 475 kts | 253° |
| 2026-04-30 10:18 | -1.70615 | 115.95356 | 24961 ft | 477 kts | 253° |
| 2026-04-30 10:19 | -1.72564 | 115.89000 | 25516 ft | 481 kts | 252° |
| 2026-04-30 10:19 | -1.73551 | 115.85792 | 25732 ft | 484 kts | 252° |
| 2026-04-30 10:19 | -1.74543 | 115.82571 | 26084 ft | 483 kts | 252° |
| 2026-04-30 10:19 | -1.75517 | 115.79408 | 26511 ft | 482 kts | 252° |
| 2026-04-30 10:20 | -1.76502 | 115.76210 | 26882 ft | 482 kts | 252° |
| 2026-04-30 10:20 | -1.78475 | 115.69801 | 27473 ft | 482 kts | 252° |
| 2026-04-30 10:20 | -1.79459 | 115.66596 | 27814 ft | 482 kts | 252° |
| 2026-04-30 10:21 | -1.80436 | 115.63400 | 28213 ft | 480 kts | 252° |
| 2026-04-30 10:21 | -1.81413 | 115.60212 | 28643 ft | 479 kts | 252° |
| 2026-04-30 10:21 | -1.82388 | 115.57039 | 29020 ft | 478 kts | 252° |
| 2026-04-30 10:21 | -1.83364 | 115.53866 | 29388 ft | 478 kts | 252° |
| 2026-04-30 10:22 | -1.84341 | 115.50693 | 29783 ft | 477 kts | 252° |
| 2026-04-30 10:22 | -1.85314 | 115.47522 | 30153 ft | 477 kts | 252° |
| 2026-04-30 10:22 | -1.86304 | 115.44367 | 30522 ft | 476 kts | 249° |
| 2026-04-30 10:22 | -1.87639 | 115.41348 | 30901 ft | 474 kts | 240° |
| 2026-04-30 10:23 | -1.89422 | 115.38592 | 31288 ft | 471 kts | 231° |
| 2026-04-30 10:23 | -1.91471 | 115.36040 | 31647 ft | 471 kts | 230° |
| 2026-04-30 10:23 | -1.93520 | 115.33487 | 32034 ft | 470 kts | 231° |
| 2026-04-30 10:23 | -1.95555 | 115.30939 | 32417 ft | 468 kts | 231° |
| 2026-04-30 10:24 | -1.97582 | 115.28398 | 32808 ft | 467 kts | 231° |
| 2026-04-30 10:24 | -1.99606 | 115.25868 | 33218 ft | 465 kts | 231° |
| 2026-04-30 10:24 | -2.01625 | 115.23346 | 33608 ft | 463 kts | 231° |
| 2026-04-30 10:24 | -2.03637 | 115.20836 | 33825 ft | 462 kts | 231° |
| 2026-04-30 10:25 | -2.07696 | 115.15759 | 33866 ft | 473 kts | 231° |
| 2026-04-30 10:25 | -2.11819 | 115.10594 | 33866 ft | 479 kts | 232° |
| 2026-04-30 10:26 | -2.16035 | 115.05313 | 33866 ft | 489 kts | 232° |
| 2026-04-30 10:26 | -2.20289 | 114.99993 | 33865 ft | 491 kts | 232° |
| 2026-04-30 10:27 | -2.24554 | 114.94666 | 33865 ft | 491 kts | 232° |
| 2026-04-30 10:27 | -2.28814 | 114.89328 | 33865 ft | 491 kts | 232° |
| 2026-04-30 10:28 | -2.33071 | 114.83992 | 33866 ft | 491 kts | 232° |
| 2026-04-30 10:28 | -2.37332 | 114.78662 | 33867 ft | 491 kts | 232° |
| 2026-04-30 10:29 | -2.41603 | 114.73333 | 33868 ft | 491 kts | 232° |
| 2026-04-30 10:29 | -2.45844 | 114.68032 | 33870 ft | 491 kts | 232° |
| 2026-04-30 10:30 | -2.50095 | 114.62693 | 33870 ft | 491 kts | 232° |
| 2026-04-30 10:30 | -2.54353 | 114.57348 | 33870 ft | 491 kts | 232° |
| 2026-04-30 10:31 | -2.58620 | 114.52009 | 33870 ft | 491 kts | 232° |
| 2026-04-30 10:31 | -2.62881 | 114.46673 | 33869 ft | 491 kts | 232° |
| 2026-04-30 10:32 | -2.67146 | 114.41336 | 33870 ft | 491 kts | 232° |
| 2026-04-30 10:32 | -2.71410 | 114.35990 | 33869 ft | 491 kts | 232° |
| 2026-04-30 10:33 | -2.75667 | 114.30646 | 33867 ft | 491 kts | 232° |
| 2026-04-30 10:33 | -2.79930 | 114.25302 | 33864 ft | 491 kts | 232° |
| 2026-04-30 10:34 | -2.84186 | 114.19972 | 33863 ft | 491 kts | 232° |
| 2026-04-30 10:34 | -2.88449 | 114.14630 | 33863 ft | 491 kts | 232° |
| 2026-04-30 10:35 | -2.92711 | 114.09288 | 33865 ft | 491 kts | 232° |
| 2026-04-30 10:35 | -2.96975 | 114.03943 | 33870 ft | 492 kts | 232° |
| 2026-04-30 10:36 | -3.01237 | 113.98599 | 33873 ft | 492 kts | 232° |
| 2026-04-30 10:36 | -3.05503 | 113.93243 | 33875 ft | 492 kts | 232° |
| 2026-04-30 10:37 | -3.09738 | 113.87924 | 33875 ft | 492 kts | 232° |
| 2026-04-30 10:37 | -3.14014 | 113.82576 | 33875 ft | 492 kts | 232° |
| 2026-04-30 10:38 | -3.18284 | 113.77219 | 33875 ft | 492 kts | 232° |
| 2026-04-30 10:38 | -3.22535 | 113.71870 | 33874 ft | 491 kts | 232° |
| 2026-04-30 10:39 | -3.26800 | 113.66515 | 33873 ft | 491 kts | 232° |
| 2026-04-30 10:39 | -3.31061 | 113.61169 | 33871 ft | 491 kts | 232° |
| 2026-04-30 10:40 | -3.35321 | 113.55820 | 33869 ft | 491 kts | 232° |
| 2026-04-30 10:40 | -3.39716 | 113.50651 | 33865 ft | 491 kts | 220° |
| 2026-04-30 10:41 | -3.45312 | 113.46754 | 33856 ft | 491 kts | 213° |
| 2026-04-30 10:41 | -3.51019 | 113.42999 | 33855 ft | 491 kts | 212° |
| 2026-04-30 10:42 | -3.56742 | 113.39239 | 33856 ft | 491 kts | 213° |
| 2026-04-30 10:42 | -3.62452 | 113.35469 | 33858 ft | 491 kts | 213° |
| 2026-04-30 10:43 | -3.68160 | 113.31691 | 33860 ft | 492 kts | 213° |
| 2026-04-30 10:43 | -3.73872 | 113.27920 | 33863 ft | 492 kts | 213° |
| 2026-04-30 10:44 | -3.79587 | 113.24144 | 33866 ft | 492 kts | 213° |
| 2026-04-30 10:44 | -3.85262 | 113.20396 | 33867 ft | 492 kts | 213° |
| 2026-04-30 10:45 | -3.90978 | 113.16626 | 33869 ft | 492 kts | 213° |
| 2026-04-30 10:45 | -3.96691 | 113.12849 | 33870 ft | 492 kts | 213° |
| 2026-04-30 10:46 | -4.02399 | 113.09071 | 33870 ft | 492 kts | 213° |
| 2026-04-30 10:46 | -4.08115 | 113.05294 | 33870 ft | 492 kts | 213° |
| 2026-04-30 10:47 | -4.13824 | 113.01518 | 33870 ft | 492 kts | 213° |
| 2026-04-30 10:47 | -4.19531 | 112.97738 | 33870 ft | 492 kts | 213° |
| 2026-04-30 10:48 | -4.25247 | 112.93958 | 33870 ft | 492 kts | 213° |
| 2026-04-30 10:48 | -4.30964 | 112.90180 | 33871 ft | 492 kts | 213° |
| 2026-04-30 10:49 | -4.36683 | 112.86406 | 33872 ft | 492 kts | 213° |
| 2026-04-30 10:49 | -4.42395 | 112.82619 | 33874 ft | 492 kts | 213° |
| 2026-04-30 10:50 | -4.47127 | 112.79447 | 33876 ft | 493 kts | 213° |
| 2026-04-30 10:50 | -4.52825 | 112.75621 | 33878 ft | 493 kts | 213° |
| 2026-04-30 10:51 | -4.59461 | 112.71183 | 33884 ft | 493 kts | 213° |
| 2026-04-30 10:51 | -4.65159 | 112.67378 | 33881 ft | 492 kts | 213° |
| 2026-04-30 10:52 | -4.68146 | 112.65725 | 33888 ft | 490 kts | 199° |
| 2026-04-30 10:52 | -4.71455 | 112.65026 | 33876 ft | 486 kts | 182° |
| 2026-04-30 10:52 | -4.77078 | 112.64764 | 33863 ft | 487 kts | 182° |
| 2026-04-30 10:53 | -4.83846 | 112.64356 | 33860 ft | 487 kts | 183° |
| 2026-04-30 10:53 | -4.90611 | 112.63884 | 33861 ft | 488 kts | 183° |
| 2026-04-30 10:54 | -4.97377 | 112.63329 | 33862 ft | 489 kts | 188° |
| 2026-04-30 10:54 | -5.03868 | 112.61312 | 33862 ft | 490 kts | 205° |
| 2026-04-30 10:55 | -5.09660 | 112.57714 | 33862 ft | 491 kts | 213° |
| 2026-04-30 10:55 | -5.15343 | 112.53892 | 33861 ft | 491 kts | 213° |
| 2026-04-30 10:56 | -5.21036 | 112.50091 | 33836 ft | 493 kts | 213° |
| 2026-04-30 10:56 | -5.26759 | 112.46273 | 33837 ft | 495 kts | 213° |
| 2026-04-30 10:57 | -5.32508 | 112.42425 | 33841 ft | 497 kts | 213° |
| 2026-04-30 10:57 | -5.38253 | 112.38569 | 33847 ft | 498 kts | 213° |
| 2026-04-30 10:58 | -5.43974 | 112.34727 | 33850 ft | 498 kts | 213° |
| 2026-04-30 10:58 | -5.49741 | 112.30861 | 33854 ft | 498 kts | 213° |
| 2026-04-30 10:59 | -5.55508 | 112.26999 | 33857 ft | 499 kts | 213° |
| 2026-04-30 10:59 | -5.61288 | 112.23126 | 33862 ft | 499 kts | 213° |
| 2026-04-30 11:00 | -5.67063 | 112.19248 | 33865 ft | 499 kts | 213° |
| 2026-04-30 11:00 | -5.72834 | 112.15375 | 33868 ft | 499 kts | 213° |
| 2026-04-30 11:01 | -5.78611 | 112.11491 | 33870 ft | 499 kts | 213° |
| 2026-04-30 11:01 | -5.84394 | 112.07614 | 33872 ft | 499 kts | 213° |
| 2026-04-30 11:02 | -5.90168 | 112.03742 | 33874 ft | 500 kts | 213° |
| 2026-04-30 11:02 | -5.95571 | 111.99403 | 33872 ft | 498 kts | 234° |
| 2026-04-30 11:03 | -5.97248 | 111.96385 | 33867 ft | 496 kts | 246° |
| 2026-04-30 11:03 | -5.98870 | 111.93335 | 33860 ft | 496 kts | 233° |
| 2026-04-30 11:03 | -6.01260 | 111.90918 | 33856 ft | 495 kts | 218° |
| 2026-04-30 11:04 | -6.06903 | 111.86935 | 33848 ft | 497 kts | 213° |
| 2026-04-30 11:04 | -6.12605 | 111.82996 | 33849 ft | 498 kts | 216° |
| 2026-04-30 11:05 | -6.18121 | 111.78778 | 33851 ft | 498 kts | 218° |
| 2026-04-30 11:05 | -6.23550 | 111.74437 | 33855 ft | 499 kts | 218° |
| 2026-04-30 11:06 | -6.29001 | 111.70122 | 33869 ft | 499 kts | 217° |
| 2026-04-30 11:06 | -6.34455 | 111.65885 | 33886 ft | 498 kts | 217° |
| 2026-04-30 11:07 | -6.39959 | 111.61654 | 33894 ft | 498 kts | 217° |
| 2026-04-30 11:07 | -6.45455 | 111.57407 | 33895 ft | 498 kts | 217° |
| 2026-04-30 11:08 | -6.50922 | 111.53133 | 33895 ft | 498 kts | 217° |
| 2026-04-30 11:08 | -6.56391 | 111.48860 | 33893 ft | 498 kts | 217° |
| 2026-04-30 11:09 | -6.61859 | 111.44597 | 33897 ft | 498 kts | 217° |
| 2026-04-30 11:09 | -6.67347 | 111.40332 | 33895 ft | 498 kts | 217° |
| 2026-04-30 11:10 | -6.72826 | 111.36063 | 33899 ft | 498 kts | 217° |
| 2026-04-30 11:10 | -6.78311 | 111.31784 | 33903 ft | 499 kts | 217° |
| 2026-04-30 11:11 | -6.83781 | 111.27519 | 33896 ft | 496 kts | 217° |
| 2026-04-30 11:11 | -6.89235 | 111.23274 | 33891 ft | 495 kts | 217° |
| 2026-04-30 11:12 | -6.94681 | 111.19026 | 33892 ft | 496 kts | 217° |
| 2026-04-30 11:12 | -7.00139 | 111.14770 | 33890 ft | 496 kts | 217° |
| 2026-04-30 11:13 | -7.05588 | 111.10516 | 33892 ft | 495 kts | 217° |
| 2026-04-30 11:13 | -7.11031 | 111.06261 | 33899 ft | 495 kts | 217° |
| 2026-04-30 11:14 | -7.16411 | 111.02058 | 33619 ft | 485 kts | 217° |
| 2026-04-30 11:14 | -7.19076 | 110.99980 | 33369 ft | 484 kts | 217° |
| 2026-04-30 11:14 | -7.21733 | 110.97907 | 33120 ft | 483 kts | 217° |
| 2026-04-30 11:14 | -7.24387 | 110.95833 | 32870 ft | 483 kts | 217° |
| 2026-04-30 11:15 | -7.27042 | 110.93759 | 32618 ft | 483 kts | 217° |
| 2026-04-30 11:15 | -7.29663 | 110.91713 | 32374 ft | 483 kts | 217° |
| 2026-04-30 11:15 | -7.32321 | 110.89642 | 32129 ft | 483 kts | 217° |
| 2026-04-30 11:15 | -7.34980 | 110.87569 | 31876 ft | 482 kts | 217° |
| 2026-04-30 11:16 | -7.37624 | 110.85503 | 31625 ft | 481 kts | 217° |
| 2026-04-30 11:16 | -7.40267 | 110.83435 | 31377 ft | 480 kts | 217° |
| 2026-04-30 11:16 | -7.42901 | 110.81374 | 31128 ft | 480 kts | 217° |
| 2026-04-30 11:16 | -7.45534 | 110.79313 | 30875 ft | 480 kts | 217° |
| 2026-04-30 11:17 | -7.48178 | 110.77244 | 30622 ft | 480 kts | 217° |
| 2026-04-30 11:17 | -7.50796 | 110.75154 | 30327 ft | 481 kts | 220° |
| 2026-04-30 11:17 | -7.53155 | 110.72757 | 29643 ft | 482 kts | 228° |
| 2026-04-30 11:17 | -7.55361 | 110.70193 | 28649 ft | 485 kts | 228° |
| 2026-04-30 11:18 | -7.57579 | 110.67611 | 27517 ft | 491 kts | 228° |
| 2026-04-30 11:18 | -7.62093 | 110.62360 | 25247 ft | 498 kts | 228° |
| 2026-04-30 11:18 | -7.64364 | 110.59725 | 24414 ft | 495 kts | 227° |
| 2026-04-30 11:19 | -7.66790 | 110.57298 | 24017 ft | 490 kts | 221° |
| 2026-04-30 11:19 | -7.69303 | 110.55014 | 23355 ft | 483 kts | 220° |
| 2026-04-30 11:19 | -7.71787 | 110.52766 | 22574 ft | 477 kts | 220° |
| 2026-04-30 11:19 | -7.74247 | 110.50548 | 21823 ft | 472 kts | 220° |
| 2026-04-30 11:20 | -7.76687 | 110.48357 | 21086 ft | 467 kts | 220° |
| 2026-04-30 11:20 | -7.79099 | 110.46197 | 20340 ft | 461 kts | 220° |
| 2026-04-30 11:20 | -7.81488 | 110.44065 | 19591 ft | 456 kts | 220° |
| 2026-04-30 11:20 | -7.83855 | 110.41956 | 18840 ft | 451 kts | 220° |
| 2026-04-30 11:21 | -7.86192 | 110.39881 | 18088 ft | 446 kts | 220° |
| 2026-04-30 11:21 | -7.88516 | 110.37823 | 17355 ft | 441 kts | 220° |
| 2026-04-30 11:21 | -7.90809 | 110.35795 | 16643 ft | 436 kts | 220° |
| 2026-04-30 11:21 | -7.93079 | 110.33785 | 15966 ft | 431 kts | 220° |
| 2026-04-30 11:22 | -7.95315 | 110.31798 | 15310 ft | 426 kts | 220° |
| 2026-04-30 11:22 | -7.97499 | 110.29854 | 14674 ft | 422 kts | 220° |
| 2026-04-30 11:22 | -7.99716 | 110.27881 | 14044 ft | 417 kts | 220° |
| 2026-04-30 11:22 | -8.01847 | 110.25980 | 13408 ft | 412 kts | 220° |
| 2026-04-30 11:23 | -8.03983 | 110.24077 | 12996 ft | 409 kts | 220° |
| 2026-04-30 11:23 | -8.06111 | 110.22180 | 12706 ft | 406 kts | 220° |
| 2026-04-30 11:23 | -8.10300 | 110.18442 | 11338 ft | 398 kts | 220° |
| 2026-04-30 11:24 | -8.12361 | 110.16606 | 10660 ft | 393 kts | 220° |
| 2026-04-30 11:24 | -8.14393 | 110.14797 | 10274 ft | 382 kts | 220° |
| 2026-04-30 11:24 | -8.16320 | 110.13086 | 10124 ft | 354 kts | 220° |
| 2026-04-30 11:25 | -8.19780 | 110.10004 | 9422 ft | 316 kts | 220° |
| 2026-04-30 11:25 | -8.21407 | 110.08551 | 8921 ft | 307 kts | 221° |
| 2026-04-30 11:25 | -8.23217 | 110.04937 | 8055 ft | 287 kts | 271° |
| 2026-04-30 11:26 | -8.21675 | 110.01366 | 8008 ft | 290 kts | 316° |
| 2026-04-30 11:26 | -8.20024 | 110.00206 | 8008 ft | 291 kts | 337° |
| 2026-04-30 11:26 | -8.18102 | 109.99718 | 8000 ft | 276 kts | 358° |
| 2026-04-30 11:27 | -8.16239 | 109.99897 | 8009 ft | 268 kts | 14° |
| 2026-04-30 11:27 | -8.14465 | 110.00292 | 8001 ft | 250 kts | 12° |
| 2026-04-30 11:27 | -8.12798 | 110.00409 | 8005 ft | 237 kts | 355° |
| 2026-04-30 11:27 | -8.11198 | 110.00062 | 8006 ft | 236 kts | 339° |
| 2026-04-30 11:28 | -8.08384 | 109.98495 | 8005 ft | 231 kts | 329° |
| 2026-04-30 11:28 | -8.07003 | 109.97669 | 7995 ft | 231 kts | 329° |
| 2026-04-30 11:28 | -8.05598 | 109.96829 | 7681 ft | 229 kts | 329° |
| 2026-04-30 11:29 | -8.04247 | 109.96021 | 7175 ft | 232 kts | 330° |
| 2026-04-30 11:29 | -8.02833 | 109.95175 | 6496 ft | 241 kts | 330° |
| 2026-04-30 11:29 | -7.99857 | 109.93393 | 5133 ft | 256 kts | 330° |
| 2026-04-30 11:30 | -7.96789 | 109.91555 | 4065 ft | 255 kts | 330° |
| 2026-04-30 11:30 | -7.95249 | 109.90633 | 3429 ft | 259 kts | 330° |
| 2026-04-30 11:30 | -7.93679 | 109.89733 | 2794 ft | 260 kts | 336° |
| 2026-04-30 11:31 | -7.91943 | 109.89228 | 2298 ft | 256 kts | 346° |
| 2026-04-30 11:31 | -7.90261 | 109.88870 | 2136 ft | 238 kts | 356° |
| 2026-04-30 11:31 | -7.88698 | 109.89073 | 2038 ft | 220 kts | 20° |
| 2026-04-30 11:31 | -7.87425 | 109.89820 | 2001 ft | 206 kts | 43° |
| 2026-04-30 11:32 | -7.86543 | 109.90937 | 2027 ft | 203 kts | 63° |
| 2026-04-30 11:32 | -7.86108 | 109.92275 | 2017 ft | 202 kts | 82° |
| 2026-04-30 11:32 | -7.86163 | 109.93659 | 1999 ft | 191 kts | 103° |
| 2026-04-30 11:33 | -7.86967 | 109.95961 | 1736 ft | 162 kts | 110° |
| 2026-04-30 11:33 | -7.87346 | 109.96997 | 1575 ft | 153 kts | 110° |
| 2026-04-30 11:33 | -7.87708 | 109.97991 | 1364 ft | 150 kts | 110° |
| 2026-04-30 11:33 | -7.88035 | 109.98887 | 1183 ft | 148 kts | 110° |
| 2026-04-30 11:34 | -7.88225 | 109.99405 | 1079 ft | 148 kts | 110° |
| 2026-04-30 11:34 | -7.88579 | 110.00375 | 884 ft | 147 kts | 110° |
| 2026-04-30 11:34 | -7.88932 | 110.01340 | 690 ft | 146 kts | 110° |
| 2026-04-30 11:34 | -7.89282 | 110.02300 | 487 ft | 146 kts | 110° |
| 2026-04-30 11:35 | -7.89634 | 110.03259 | 295 ft | 145 kts | 110° |
| 2026-04-30 11:35 | -7.89966 | 110.04220 | 100 ft | 145 kts | 109° |
| 2026-04-30 11:35 | -7.90307 | 110.05137 | 31 ft | 126 kts | 111° |
| 2026-04-30 11:35 | -7.90555 | 110.05804 | 37 ft | 77 kts | 110° |
| 2026-04-30 11:36 | -7.90664 | 110.06150 | 33 ft | 24 kts | 90° |
| 2026-04-30 11:36 | -7.90662 | 110.06239 | 34 ft | 9 kts | 86° |
| 2026-04-30 11:36 | -7.90658 | 110.06271 | 33 ft | 1 kts | 80° |
| 2026-04-30 11:36 | -7.90655 | 110.06284 | 35 ft | 2 kts | 78° |
| 2026-04-30 11:37 | -7.90651 | 110.06304 | 35 ft | 3 kts | 73° |
| 2026-04-30 11:37 | -7.90632 | 110.06341 | 35 ft | 9 kts | 67° |
| 2026-04-30 11:37 | -7.90617 | 110.06423 | 34 ft | 15 kts | 82° |
| 2026-04-30 11:37 | -7.90537 | 110.06494 | 35 ft | 16 kts | 20° |
| 2026-04-30 11:38 | -7.90446 | 110.06473 | 37 ft | 18 kts | 297° |
| 2026-04-30 11:38 | -7.90397 | 110.06346 | 38 ft | 20 kts | 290° |
| 2026-04-30 11:38 | -7.90352 | 110.06224 | 36 ft | 10 kts | 290° |
| 2026-04-30 11:38 | -7.90335 | 110.06181 | 38 ft | 5 kts | 291° |
| 2026-04-30 11:39 | -7.90324 | 110.06151 | 36 ft | 7 kts | 291° |
| 2026-04-30 11:39 | -7.90296 | 110.06076 | 36 ft | 16 kts | 289° |
| 2026-04-30 11:39 | -7.90264 | 110.05989 | 38 ft | 23 kts | 290° |
| 2026-04-30 11:39 | -7.90207 | 110.05835 | 38 ft | 0 kts | 290° |
| 2026-04-30 11:40 | -7.90206 | 110.05834 | 38 ft | 3 kts | 290° |
| 2026-04-30 11:40 | -7.90181 | 110.05766 | 36 ft | 13 kts | 291° |
| 2026-04-30 11:40 | -7.90137 | 110.05691 | 38 ft | 10 kts | 335° |
| 2026-04-30 11:40 | -7.90078 | 110.05706 | 38 ft | 10 kts | 20° |
| 2026-04-30 11:41 | -7.90053 | 110.05716 | 38 ft | 0 kts | 21° |